sensor_id;sensor_type;location;lat;lon;timestamp;pressure;altitude;pressure_sealevel;temperature;humidity
1029;BME280;503;48.120;11.488;2022-07-24T00:01:00;95763.28;;;25.72;52.72
1029;BME280;503;48.120;11.488;2022-07-24T00:03:25;95762.09;;;25.66;52.93
1029;BME280;503;48.120;11.488;2022-07-24T00:05:52;95760.94;;;25.67;52.93
1029;BME280;503;48.120;11.488;2022-07-24T00:08:17;95756.66;;;25.66;53.02
1029;BME280;503;48.120;11.488;2022-07-24T00:10:43;95765.59;;;25.66;52.91
1029;BME280;503;48.120;11.488;2022-07-24T00:13:08;95771.03;;;25.63;53.04
1029;BME280;503;48.120;11.488;2022-07-24T00:15:34;95750.38;;;25.51;53.16
1029;BME280;503;48.120;11.488;2022-07-24T00:17:59;95764.41;;;25.57;53.21
1029;BME280;503;48.120;11.488;2022-07-24T00:20:25;95754.28;;;25.54;53.45
1029;BME280;503;48.120;11.488;2022-07-24T00:22:50;95753.09;;;25.48;53.34
1029;BME280;503;48.120;11.488;2022-07-24T00:25:15;95750.38;;;25.44;53.50
1029;BME280;503;48.120;11.488;2022-07-24T00:27:40;95758.19;;;25.56;53.27
1029;BME280;503;48.120;11.488;2022-07-24T00:30:07;95750.03;;;25.60;53.13
1029;BME280;503;48.120;11.488;2022-07-24T00:32:32;95756.25;;;25.67;53.17
1029;BME280;503;48.120;11.488;2022-07-24T00:34:58;95757.44;;;25.66;52.92
1029;BME280;503;48.120;11.488;2022-07-24T00:37:23;95751.97;;;25.63;53.24
1029;BME280;503;48.120;11.488;2022-07-24T00:39:48;95749.63;;;25.58;52.98
1029;BME280;503;48.120;11.488;2022-07-24T00:42:14;95768.31;;;25.74;53.27
1029;BME280;503;48.120;11.488;2022-07-24T00:44:39;95755.09;;;25.72;53.46
1029;BME280;503;48.120;11.488;2022-07-24T00:47:05;95751.25;;;25.84;52.72
1029;BME280;503;48.120;11.488;2022-07-24T00:49:30;95760.63;;;25.97;52.42
1029;BME280;503;48.120;11.488;2022-07-24T00:51:55;95750.47;;;25.94;52.27
1029;BME280;503;48.120;11.488;2022-07-24T00:54:21;95771.53;;;26.11;52.80
1029;BME280;503;48.120;11.488;2022-07-24T00:56:49;95761.78;;;26.32;52.50
1029;BME280;503;48.120;11.488;2022-07-24T00:59:15;95745.44;;;26.28;51.25
1029;BME280;503;48.120;11.488;2022-07-24T01:01:41;95737.66;;;26.27;51.29
1029;BME280;503;48.120;11.488;2022-07-24T01:04:07;95735.69;;;26.16;51.16
1029;BME280;503;48.120;11.488;2022-07-24T01:06:33;95764.09;;;26.40;51.00
1029;BME280;503;48.120;11.488;2022-07-24T01:08:58;95763.34;;;26.36;50.42
1029;BME280;503;48.120;11.488;2022-07-24T01:11:24;95755.97;;;26.26;50.51
1029;BME280;503;48.120;11.488;2022-07-24T01:13:50;95766.09;;;26.22;51.02
1029;BME280;503;48.120;11.488;2022-07-24T01:16:16;95742.31;;;26.08;51.07
1029;BME280;503;48.120;11.488;2022-07-24T01:18:42;95732.56;;;26.04;50.79
1029;BME280;503;48.120;11.488;2022-07-24T01:21:08;95743.47;;;26.04;51.21
1029;BME280;503;48.120;11.488;2022-07-24T01:23:34;95752.06;;;26.06;50.91
1029;BME280;503;48.120;11.488;2022-07-24T01:26:00;95739.56;;;25.94;51.31
1029;BME280;503;48.120;11.488;2022-07-24T01:28:26;95762.97;;;26.06;51.40
1029;BME280;503;48.120;11.488;2022-07-24T01:30:51;95743.88;;;25.91;51.47
1029;BME280;503;48.120;11.488;2022-07-24T01:33:17;95749.72;;;26.01;51.38
1029;BME280;503;48.120;11.488;2022-07-24T01:35:42;95737.63;;;25.98;51.52
1029;BME280;503;48.120;11.488;2022-07-24T01:38:09;95745.44;;;26.03;51.19
1029;BME280;503;48.120;11.488;2022-07-24T01:40:35;95750.09;;;26.03;51.26
1029;BME280;503;48.120;11.488;2022-07-24T01:43:01;95734.13;;;25.83;51.21
1029;BME280;503;48.120;11.488;2022-07-24T01:45:27;95756.72;;;25.95;51.51
1029;BME280;503;48.120;11.488;2022-07-24T01:47:52;95744.25;;;25.83;51.48
1029;BME280;503;48.120;11.488;2022-07-24T01:50:17;95740.38;;;25.80;51.41
1029;BME280;503;48.120;11.488;2022-07-24T01:52:43;95740.75;;;25.82;51.55
1029;BME280;503;48.120;11.488;2022-07-24T01:55:09;95741.91;;;25.81;51.59
1029;BME280;503;48.120;11.488;2022-07-24T01:57:35;95745.44;;;25.85;51.83
1029;BME280;503;48.120;11.488;2022-07-24T02:00:00;95737.19;;;25.71;51.75
1029;BME280;503;48.120;11.488;2022-07-24T02:02:27;95727.03;;;25.54;51.96
1029;BME280;503;48.120;11.488;2022-07-24T02:04:53;95728.59;;;25.51;52.05
1029;BME280;503;48.120;11.488;2022-07-24T02:07:18;95742.59;;;25.53;52.13
1029;BME280;503;48.120;11.488;2022-07-24T02:09:44;95738.69;;;25.44;52.43
1029;BME280;503;48.120;11.488;2022-07-24T02:12:09;95736.72;;;25.33;52.65
1029;BME280;503;48.120;11.488;2022-07-24T02:14:35;95740.97;;;25.24;52.82
1029;BME280;503;48.120;11.488;2022-07-24T02:17:00;95731.53;;;25.00;53.73
1029;BME280;503;48.120;11.488;2022-07-24T02:19:25;95737.00;;;25.07;53.39
1029;BME280;503;48.120;11.488;2022-07-24T02:21:51;95722.94;;;24.94;53.70
1029;BME280;503;48.120;11.488;2022-07-24T02:24:16;95732.63;;;24.88;54.06
1029;BME280;503;48.120;11.488;2022-07-24T02:26:42;95712.00;;;24.83;54.08
1029;BME280;503;48.120;11.488;2022-07-24T02:29:07;95724.59;;;25.13;53.82
1029;BME280;503;48.120;11.488;2022-07-24T02:31:33;95731.25;;;25.26;53.31
1029;BME280;503;48.120;11.488;2022-07-24T02:33:58;95731.28;;;25.30;53.34
1029;BME280;503;48.120;11.488;2022-07-24T02:36:23;95727.41;;;25.34;53.49
1029;BME280;503;48.120;11.488;2022-07-24T02:38:49;95726.56;;;25.23;53.08
1029;BME280;503;48.120;11.488;2022-07-24T02:41:14;95717.19;;;25.06;53.58
1029;BME280;503;48.120;11.488;2022-07-24T02:43:39;95742.13;;;25.23;53.91
1029;BME280;503;48.120;11.488;2022-07-24T02:46:05;95730.88;;;25.24;53.65
1029;BME280;503;48.120;11.488;2022-07-24T02:48:30;95746.47;;;25.34;53.56
1029;BME280;503;48.120;11.488;2022-07-24T02:50:55;95719.50;;;25.08;53.72
1029;BME280;503;48.120;11.488;2022-07-24T02:53:21;95731.91;;;25.02;53.96
1029;BME280;503;48.120;11.488;2022-07-24T02:55:46;95734.16;;;24.85;54.13
1029;BME280;503;48.120;11.488;2022-07-24T02:58:11;95750.53;;;24.89;54.25
1029;BME280;503;48.120;11.488;2022-07-24T03:00:36;95716.56;;;24.65;54.65
1029;BME280;503;48.120;11.488;2022-07-24T03:03:02;95732.16;;;24.68;54.76
1029;BME280;503;48.120;11.488;2022-07-24T03:05:28;95721.16;;;24.50;54.69
1029;BME280;503;48.120;11.488;2022-07-24T03:07:53;95724.25;;;24.49;55.33
1029;BME280;503;48.120;11.488;2022-07-24T03:10:18;95743.72;;;24.54;55.31
1029;BME280;503;48.120;11.488;2022-07-24T03:12:44;95727.72;;;24.42;55.78
1029;BME280;503;48.120;11.488;2022-07-24T03:15:11;95726.53;;;24.40;55.89
1029;BME280;503;48.120;11.488;2022-07-24T03:17:36;95685.13;;;24.09;55.54
1029;BME280;503;48.120;11.488;2022-07-24T03:20:03;95730.28;;;24.24;56.14
1029;BME280;503;48.120;11.488;2022-07-24T03:22:28;95737.72;;;24.34;56.48
1029;BME280;503;48.120;11.488;2022-07-24T03:24:54;95722.13;;;24.24;56.31
1029;BME280;503;48.120;11.488;2022-07-24T03:27:19;95724.72;;;24.10;56.93
1029;BME280;503;48.120;11.488;2022-07-24T03:29:45;95713.34;;;23.94;57.16
1029;BME280;503;48.120;11.488;2022-07-24T03:32:10;95651.63;;;23.46;57.11
1029;BME280;503;48.120;11.488;2022-07-24T03:34:35;95732.88;;;24.10;56.94
1029;BME280;503;48.120;11.488;2022-07-24T03:37:01;95686.34;;;23.67;57.46
1029;BME280;503;48.120;11.488;2022-07-24T03:39:26;95705.06;;;23.79;58.15
1029;BME280;503;48.120;11.488;2022-07-24T03:41:51;95628.16;;;23.27;57.78
1029;BME280;503;48.120;11.488;2022-07-24T03:44:16;95721.88;;;23.92;58.09
1029;BME280;503;48.120;11.488;2022-07-24T03:46:42;95675.41;;;23.60;57.88
1029;BME280;503;48.120;11.488;2022-07-24T03:49:07;95708.56;;;23.76;57.72
1029;BME280;503;48.120;11.488;2022-07-24T03:51:33;95704.63;;;23.70;58.00
1029;BME280;503;48.120;11.488;2022-07-24T03:54:00;95753.63;;;23.84;58.50
1029;BME280;503;48.120;11.488;2022-07-24T03:56:27;95740.03;;;23.84;58.36
1029;BME280;503;48.120;11.488;2022-07-24T03:58:53;95745.91;;;23.86;58.51
1029;BME280;503;48.120;11.488;2022-07-24T04:01:18;95753.28;;;23.86;58.62
1029;BME280;503;48.120;11.488;2022-07-24T04:03:44;95703.34;;;23.60;58.47
1029;BME280;503;48.120;11.488;2022-07-24T04:06:09;95751.44;;;23.60;59.54
1029;BME280;503;48.120;11.488;2022-07-24T04:08:34;95759.94;;;23.58;59.63
1029;BME280;503;48.120;11.488;2022-07-24T04:10:59;95755.16;;;23.45;59.96
1029;BME280;503;48.120;11.488;2022-07-24T04:13:27;95758.00;;;23.55;59.97
1029;BME280;503;48.120;11.488;2022-07-24T04:15:53;95714.50;;;23.15;60.20
1029;BME280;503;48.120;11.488;2022-07-24T04:18:19;95771.53;;;23.52;60.54
1029;BME280;503;48.120;11.488;2022-07-24T04:20:44;95760.00;;;23.62;60.16
1029;BME280;503;48.120;11.488;2022-07-24T04:23:10;95734.66;;;23.51;59.77
1029;BME280;503;48.120;11.488;2022-07-24T04:25:35;95727.03;;;23.26;60.09
1029;BME280;503;48.120;11.488;2022-07-24T04:28:01;95749.66;;;23.38;60.32
1029;BME280;503;48.120;11.488;2022-07-24T04:30:27;95740.06;;;23.47;59.97
1029;BME280;503;48.120;11.488;2022-07-24T04:32:53;95784.53;;;23.69;59.98
1029;BME280;503;48.120;11.488;2022-07-24T04:35:18;95782.91;;;23.65;59.98
1029;BME280;503;48.120;11.488;2022-07-24T04:37:44;95753.22;;;23.45;60.33
1029;BME280;503;48.120;11.488;2022-07-24T04:40:11;95764.56;;;23.92;59.63
1029;BME280;503;48.120;11.488;2022-07-24T04:42:37;95777.81;;;24.41;58.54
1029;BME280;503;48.120;11.488;2022-07-24T04:45:02;95733.59;;;24.48;57.87
1029;BME280;503;48.120;11.488;2022-07-24T04:47:28;95693.16;;;24.43;57.38
1029;BME280;503;48.120;11.488;2022-07-24T04:49:53;95731.09;;;24.94;56.72
1029;BME280;503;48.120;11.488;2022-07-24T04:52:18;95743.34;;;25.36;55.85
1029;BME280;503;48.120;11.488;2022-07-24T04:54:44;95732.13;;;25.55;55.00
1029;BME280;503;48.120;11.488;2022-07-24T04:57:09;95750.88;;;25.89;54.35
1029;BME280;503;48.120;11.488;2022-07-24T04:59:34;95701.03;;;25.99;53.66
1029;BME280;503;48.120;11.488;2022-07-24T05:02:00;95763.72;;;26.60;52.41
1029;BME280;503;48.120;11.488;2022-07-24T05:04:25;95780.84;;;26.71;52.13
1029;BME280;503;48.120;11.488;2022-07-24T05:06:50;95767.25;;;26.28;52.51
1029;BME280;503;48.120;11.488;2022-07-24T05:09:16;95736.09;;;25.86;53.10
1029;BME280;503;48.120;11.488;2022-07-24T05:11:41;95780.44;;;24.85;56.20
1029;BME280;503;48.120;11.488;2022-07-24T05:14:06;95799.47;;;24.34;58.40
1029;BME280;503;48.120;11.488;2022-07-24T05:16:32;95708.53;;;24.24;57.35
1029;BME280;503;48.120;11.488;2022-07-24T05:18:57;95778.94;;;24.99;56.87
1029;BME280;503;48.120;11.488;2022-07-24T05:21:22;95771.28;;;25.22;56.05
1029;BME280;503;48.120;11.488;2022-07-24T05:23:48;95809.47;;;25.29;56.03
1029;BME280;503;48.120;11.488;2022-07-24T05:26:13;95811.41;;;25.29;55.81
1029;BME280;503;48.120;11.488;2022-07-24T05:28:38;95711.75;;;25.06;55.54
1029;BME280;503;48.120;11.488;2022-07-24T05:31:04;95745.78;;;25.70;54.75
1029;BME280;503;48.120;11.488;2022-07-24T05:33:29;95783.59;;;26.25;53.92
1029;BME280;503;48.120;11.488;2022-07-24T05:35:56;95747.41;;;26.42;53.06
1029;BME280;503;48.120;11.488;2022-07-24T05:38:21;95803.88;;;26.45;51.73
1029;BME280;503;48.120;11.488;2022-07-24T05:40:46;95720.91;;;25.96;51.61
1029;BME280;503;48.120;11.488;2022-07-24T05:43:12;95748.91;;;26.36;51.73
1029;BME280;503;48.120;11.488;2022-07-24T05:45:37;95743.88;;;26.49;51.51
1029;BME280;503;48.120;11.488;2022-07-24T05:48:02;95773.84;;;26.77;51.03
1029;BME280;503;48.120;11.488;2022-07-24T05:50:28;95766.06;;;26.40;50.98
1029;BME280;503;48.120;11.488;2022-07-24T05:52:53;95770.34;;;25.98;51.97
1029;BME280;503;48.120;11.488;2022-07-24T05:55:18;95757.09;;;25.75;52.62
1029;BME280;503;48.120;11.488;2022-07-24T05:57:45;95729.66;;;25.18;53.40
1029;BME280;503;48.120;11.488;2022-07-24T06:00:12;95781.91;;;25.45;53.82
1029;BME280;503;48.120;11.488;2022-07-24T06:02:38;95641.94;;;24.52;53.81
1029;BME280;503;48.120;11.488;2022-07-24T06:05:04;95559.50;;;24.37;53.11
1029;BME280;503;48.120;11.488;2022-07-24T06:07:30;95797.63;;;26.27;53.02
1029;BME280;503;48.120;11.488;2022-07-24T06:09:55;95597.81;;;25.15;52.55
1029;BME280;503;48.120;11.488;2022-07-24T06:12:20;95785.19;;;26.58;51.43
1029;BME280;503;48.120;11.488;2022-07-24T06:14:46;95706.50;;;25.92;51.63
1029;BME280;503;48.120;11.488;2022-07-24T06:17:11;95752.06;;;26.27;51.68
1029;BME280;503;48.120;11.488;2022-07-24T06:19:37;95762.16;;;26.69;50.88
1029;BME280;503;48.120;11.488;2022-07-24T06:22:02;95767.19;;;26.89;50.40
1029;BME280;503;48.120;11.488;2022-07-24T06:24:27;95757.78;;;26.97;49.84
1029;BME280;503;48.120;11.488;2022-07-24T06:26:52;95775.44;;;26.32;51.26
1029;BME280;503;48.120;11.488;2022-07-24T06:29:18;95706.50;;;26.03;50.19
1029;BME280;503;48.120;11.488;2022-07-24T06:31:43;95714.66;;;26.17;50.01
1029;BME280;503;48.120;11.488;2022-07-24T06:34:09;95781.56;;;27.14;49.42
1029;BME280;503;48.120;11.488;2022-07-24T06:36:34;95766.69;;;27.26;48.49
1029;BME280;503;48.120;11.488;2022-07-24T06:38:59;95746.75;;;27.36;47.93
1029;BME280;503;48.120;11.488;2022-07-24T06:41:25;95771.97;;;27.65;46.69
1029;BME280;503;48.120;11.488;2022-07-24T06:43:50;95759.41;;;27.79;46.35
1029;BME280;503;48.120;11.488;2022-07-24T06:46:15;95771.88;;;27.83;45.34
1029;BME280;503;48.120;11.488;2022-07-24T06:48:41;95760.84;;;27.97;45.26
1029;BME280;503;48.120;11.488;2022-07-24T06:51:06;95772.41;;;28.19;44.28
1029;BME280;503;48.120;11.488;2022-07-24T06:53:31;95754.00;;;28.23;44.42
1029;BME280;503;48.120;11.488;2022-07-24T06:55:57;95761.34;;;28.37;43.23
1029;BME280;503;48.120;11.488;2022-07-24T06:58:22;95757.75;;;28.47;43.01
1029;BME280;503;48.120;11.488;2022-07-24T07:00:48;95762.75;;;28.56;43.13
1029;BME280;503;48.120;11.488;2022-07-24T07:03:15;95775.13;;;28.19;44.47
1029;BME280;503;48.120;11.488;2022-07-24T07:05:40;95783.25;;;28.30;44.82
1029;BME280;503;48.120;11.488;2022-07-24T07:08:06;95750.09;;;28.24;43.34
1029;BME280;503;48.120;11.488;2022-07-24T07:10:31;95756.59;;;27.93;44.18
1029;BME280;503;48.120;11.488;2022-07-24T07:12:57;95765.38;;;28.22;44.00
1029;BME280;503;48.120;11.488;2022-07-24T07:15:22;95774.88;;;28.55;44.21
1029;BME280;503;48.120;11.488;2022-07-24T07:17:48;95768.84;;;28.71;43.03
1029;BME280;503;48.120;11.488;2022-07-24T07:20:14;95745.78;;;28.72;42.61
1029;BME280;503;48.120;11.488;2022-07-24T07:22:40;95764.22;;;29.06;42.27
1029;BME280;503;48.120;11.488;2022-07-24T07:25:07;95783.44;;;29.33;42.21
1029;BME280;503;48.120;11.488;2022-07-24T07:27:32;95785.25;;;29.46;41.96
1029;BME280;503;48.120;11.488;2022-07-24T07:29:58;95764.38;;;29.25;40.79
1029;BME280;503;48.120;11.488;2022-07-24T07:32:23;95783.66;;;29.49;41.08
1029;BME280;503;48.120;11.488;2022-07-24T07:34:48;95772.28;;;29.50;40.26
1029;BME280;503;48.120;11.488;2022-07-24T07:37:13;95737.28;;;29.31;40.02
1029;BME280;503;48.120;11.488;2022-07-24T07:39:39;95772.13;;;29.65;39.82
1029;BME280;503;48.120;11.488;2022-07-24T07:42:04;95787.13;;;29.84;39.19
1029;BME280;503;48.120;11.488;2022-07-24T07:44:30;95782.06;;;29.82;39.15
1029;BME280;503;48.120;11.488;2022-07-24T07:46:55;95749.00;;;29.66;39.31
1029;BME280;503;48.120;11.488;2022-07-24T07:49:20;95767.41;;;29.65;38.08
1029;BME280;503;48.120;11.488;2022-07-24T07:51:46;95753.75;;;29.27;38.48
1029;BME280;503;48.120;11.488;2022-07-24T07:54:17;95754.28;;;29.49;38.52
1029;BME280;503;48.120;11.488;2022-07-24T07:56:42;95771.53;;;29.46;37.74
1029;BME280;503;48.120;11.488;2022-07-24T07:59:07;95731.06;;;29.27;37.71
1029;BME280;503;48.120;11.488;2022-07-24T08:01:33;95747.13;;;29.29;37.82
1029;BME280;503;48.120;11.488;2022-07-24T08:03:58;95761.44;;;29.09;38.29
1029;BME280;503;48.120;11.488;2022-07-24T08:06:23;95776.53;;;29.24;38.50
1029;BME280;503;48.120;11.488;2022-07-24T08:08:49;95768.44;;;29.14;38.91
1029;BME280;503;48.120;11.488;2022-07-24T08:11:14;95767.56;;;29.20;39.05
1029;BME280;503;48.120;11.488;2022-07-24T08:13:40;95742.88;;;28.86;38.78
1029;BME280;503;48.120;11.488;2022-07-24T08:16:05;95775.13;;;29.43;37.93
1029;BME280;503;48.120;11.488;2022-07-24T08:18:31;95783.56;;;29.60;37.77
1029;BME280;503;48.120;11.488;2022-07-24T08:20:56;95766.19;;;29.36;37.86
1029;BME280;503;48.120;11.488;2022-07-24T08:23:21;95778.00;;;29.63;37.67
1029;BME280;503;48.120;11.488;2022-07-24T08:25:47;95778.34;;;29.69;37.75
1029;BME280;503;48.120;11.488;2022-07-24T08:28:12;95754.78;;;29.71;37.30
1029;BME280;503;48.120;11.488;2022-07-24T08:30:37;95780.66;;;29.06;37.93
1029;BME280;503;48.120;11.488;2022-07-24T08:33:02;95772.13;;;28.07;40.07
1029;BME280;503;48.120;11.488;2022-07-24T08:35:28;95745.81;;;29.06;38.57
1029;BME280;503;48.120;11.488;2022-07-24T08:37:54;95710.28;;;29.33;37.29
1029;BME280;503;48.120;11.488;2022-07-24T08:40:19;95779.19;;;29.62;36.17
1029;BME280;503;48.120;11.488;2022-07-24T08:42:47;95757.94;;;29.39;36.74
1029;BME280;503;48.120;11.488;2022-07-24T08:45:12;95763.03;;;29.71;36.02
1029;BME280;503;48.120;11.488;2022-07-24T08:47:40;95763.97;;;28.89;37.31
1029;BME280;503;48.120;11.488;2022-07-24T08:50:07;95768.09;;;29.08;36.75
1029;BME280;503;48.120;11.488;2022-07-24T08:52:33;95776.81;;;29.34;36.85
1029;BME280;503;48.120;11.488;2022-07-24T08:55:00;95763.22;;;29.57;36.15
1029;BME280;503;48.120;11.488;2022-07-24T08:57:26;95765.00;;;29.71;36.04
1029;BME280;503;48.120;11.488;2022-07-24T08:59:51;95770.59;;;30.18;35.61
1029;BME280;503;48.120;11.488;2022-07-24T09:02:17;95751.56;;;30.31;35.00
1029;BME280;503;48.120;11.488;2022-07-24T09:04:45;95770.47;;;29.98;35.37
1029;BME280;503;48.120;11.488;2022-07-24T09:07:20;95766.19;;;30.47;35.20
1029;BME280;503;48.120;11.488;2022-07-24T09:10:06;95771.94;;;29.79;35.92
1029;BME280;503;48.120;11.488;2022-07-24T09:12:37;95780.16;;;29.48;37.27
1029;BME280;503;48.120;11.488;2022-07-24T09:15:24;95772.03;;;30.49;35.37
1029;BME280;503;48.120;11.488;2022-07-24T09:17:56;95761.22;;;30.39;34.69
1029;BME280;503;48.120;11.488;2022-07-24T09:20:23;95763.25;;;30.08;35.02
1029;BME280;503;48.120;11.488;2022-07-24T09:22:49;95771.22;;;30.96;34.34
1029;BME280;503;48.120;11.488;2022-07-24T09:25:16;95755.44;;;31.20;33.27
1029;BME280;503;48.120;11.488;2022-07-24T09:30:29;95762.91;;;29.48;36.07
1029;BME280;503;48.120;11.488;2022-07-24T09:33:04;95760.59;;;29.12;36.94
1029;BME280;503;48.120;11.488;2022-07-24T09:35:32;95756.44;;;29.92;35.17
1029;BME280;503;48.120;11.488;2022-07-24T09:38:02;95758.13;;;30.10;34.79
1029;BME280;503;48.120;11.488;2022-07-24T09:40:32;95760.16;;;30.06;34.75
1029;BME280;503;48.120;11.488;2022-07-24T09:43:28;95708.00;;;30.33;33.78
1029;BME280;503;48.120;11.488;2022-07-24T09:48:27;95753.84;;;31.02;33.75
1029;BME280;503;48.120;11.488;2022-07-24T09:50:54;95761.91;;;30.90;33.44
1029;BME280;503;48.120;11.488;2022-07-24T09:53:21;95708.56;;;29.97;34.22
1029;BME280;503;48.120;11.488;2022-07-24T09:56:10;95766.19;;;29.70;34.58
1029;BME280;503;48.120;11.488;2022-07-24T09:58:38;95747.19;;;29.21;36.07
1029;BME280;503;48.120;11.488;2022-07-24T10:01:06;95758.69;;;29.43;35.69
1029;BME280;503;48.120;11.488;2022-07-24T10:03:34;95693.19;;;28.88;35.67
1029;BME280;503;48.120;11.488;2022-07-24T10:06:02;95748.25;;;29.89;35.01
1029;BME280;503;48.120;11.488;2022-07-24T10:08:28;95740.94;;;30.56;34.56
1029;BME280;503;48.120;11.488;2022-07-24T10:10:54;95730.09;;;30.72;33.12
1029;BME280;503;48.120;11.488;2022-07-24T10:13:20;95736.72;;;30.95;33.27
1029;BME280;503;48.120;11.488;2022-07-24T10:18:47;95743.69;;;30.99;32.30
1029;BME280;503;48.120;11.488;2022-07-24T10:21:39;95742.47;;;31.60;31.47
1029;BME280;503;48.120;11.488;2022-07-24T10:24:36;95736.69;;;31.54;31.26
1029;BME280;503;48.120;11.488;2022-07-24T10:27:03;95740.56;;;30.77;32.36
1029;BME280;503;48.120;11.488;2022-07-24T10:29:32;95713.41;;;31.03;32.16
1029;BME280;503;48.120;11.488;2022-07-24T10:31:58;95734.72;;;31.91;31.38
1029;BME280;503;48.120;11.488;2022-07-24T10:45:30;95714.66;;;31.38;31.78
1029;BME280;503;48.120;11.488;2022-07-24T10:47:56;95724.94;;;30.94;32.81
1029;BME280;503;48.120;11.488;2022-07-24T10:50:22;95714.56;;;31.42;31.70
1029;BME280;503;48.120;11.488;2022-07-24T10:52:47;95722.59;;;31.52;30.70
1029;BME280;503;48.120;11.488;2022-07-24T10:55:29;95721.00;;;31.71;30.46
1029;BME280;503;48.120;11.488;2022-07-24T11:00:36;95720.81;;;32.15;31.72
1029;BME280;503;48.120;11.488;2022-07-24T11:03:05;95699.53;;;31.99;32.52
1029;BME280;503;48.120;11.488;2022-07-24T11:05:36;95697.75;;;31.92;31.60
1029;BME280;503;48.120;11.488;2022-07-24T11:08:25;95695.09;;;32.05;30.88
1029;BME280;503;48.120;11.488;2022-07-24T11:11:04;95695.84;;;32.22;30.52
1029;BME280;503;48.120;11.488;2022-07-24T11:18:40;95702.38;;;32.12;30.33
1029;BME280;503;48.120;11.488;2022-07-24T11:21:07;95697.66;;;32.74;31.45
1029;BME280;503;48.120;11.488;2022-07-24T11:23:33;95688.22;;;33.17;30.37
1029;BME280;503;48.120;11.488;2022-07-24T11:29:15;95708.72;;;33.96;29.51
1029;BME280;503;48.120;11.488;2022-07-24T11:31:46;95696.78;;;33.99;27.80
1029;BME280;503;48.120;11.488;2022-07-24T11:34:12;95687.31;;;34.34;28.62
1029;BME280;503;48.120;11.488;2022-07-24T11:36:46;95679.78;;;34.60;26.62
1029;BME280;503;48.120;11.488;2022-07-24T11:39:13;95686.66;;;34.43;26.96
1029;BME280;503;48.120;11.488;2022-07-24T11:41:52;95691.41;;;34.55;26.66
1029;BME280;503;48.120;11.488;2022-07-24T11:44:24;95687.41;;;34.44;26.54
1029;BME280;503;48.120;11.488;2022-07-24T11:46:51;95683.13;;;34.77;26.20
1029;BME280;503;48.120;11.488;2022-07-24T11:49:16;95675.03;;;34.83;25.76
1029;BME280;503;48.120;11.488;2022-07-24T11:51:47;95679.47;;;35.24;24.97
1029;BME280;503;48.120;11.488;2022-07-24T11:54:14;95677.38;;;35.37;24.66
1029;BME280;503;48.120;11.488;2022-07-24T11:56:40;95673.69;;;35.72;24.71
1029;BME280;503;48.120;11.488;2022-07-24T11:59:20;95674.63;;;35.68;23.51
1029;BME280;503;48.120;11.488;2022-07-24T12:01:45;95654.91;;;34.26;25.73
1029;BME280;503;48.120;11.488;2022-07-24T12:04:10;95667.75;;;33.81;26.01
1029;BME280;503;48.120;11.488;2022-07-24T12:06:36;95653.22;;;33.43;26.86
1029;BME280;503;48.120;11.488;2022-07-24T12:09:07;95659.47;;;32.59;27.94
1029;BME280;503;48.120;11.488;2022-07-24T12:11:33;95660.06;;;32.22;29.02
1029;BME280;503;48.120;11.488;2022-07-24T12:14:00;95664.81;;;32.05;29.28
1029;BME280;503;48.120;11.488;2022-07-24T12:16:27;95664.97;;;30.69;31.27
1029;BME280;503;48.120;11.488;2022-07-24T12:19:13;95675.28;;;32.26;29.22
1029;BME280;503;48.120;11.488;2022-07-24T12:21:41;95662.56;;;32.16;29.06
1029;BME280;503;48.120;11.488;2022-07-24T12:24:07;95646.47;;;32.31;28.99
1029;BME280;503;48.120;11.488;2022-07-24T12:26:32;95599.31;;;30.78;30.40
1029;BME280;503;48.120;11.488;2022-07-24T12:29:10;95648.66;;;30.62;31.27
1029;BME280;503;48.120;11.488;2022-07-24T12:31:36;95648.16;;;31.07;30.40
1029;BME280;503;48.120;11.488;2022-07-24T12:34:02;95646.00;;;31.87;29.13
1029;BME280;503;48.120;11.488;2022-07-24T12:36:27;95636.34;;;32.12;28.37
1029;BME280;503;48.120;11.488;2022-07-24T12:38:54;95633.13;;;32.88;30.56
1029;BME280;503;48.120;11.488;2022-07-24T12:41:22;95635.84;;;33.17;32.86
1029;BME280;503;48.120;11.488;2022-07-24T12:43:56;95641.25;;;33.20;28.04
1029;BME280;503;48.120;11.488;2022-07-24T12:46:30;95631.97;;;34.03;30.90
1029;BME280;503;48.120;11.488;2022-07-24T12:49:00;95645.47;;;34.36;27.26
1029;BME280;503;48.120;11.488;2022-07-24T12:51:26;95644.25;;;34.37;26.03
1029;BME280;503;48.120;11.488;2022-07-24T12:53:54;95602.56;;;32.69;27.51
1029;BME280;503;48.120;11.488;2022-07-24T12:56:20;95636.53;;;33.46;27.00
1029;BME280;503;48.120;11.488;2022-07-24T13:01:14;95612.81;;;33.61;28.34
1029;BME280;503;48.120;11.488;2022-07-24T13:03:40;95631.25;;;33.52;27.01
1029;BME280;503;48.120;11.488;2022-07-24T13:06:06;95609.84;;;32.76;27.73
1029;BME280;503;48.120;11.488;2022-07-24T13:08:31;95604.97;;;33.22;27.11
1029;BME280;503;48.120;11.488;2022-07-24T13:10:56;95608.59;;;32.35;27.68
1029;BME280;503;48.120;11.488;2022-07-24T13:13:22;95597.94;;;31.92;28.03
1029;BME280;503;48.120;11.488;2022-07-24T13:15:47;95588.63;;;32.60;29.10
1029;BME280;503;48.120;11.488;2022-07-24T13:18:13;95607.13;;;32.89;27.53
1029;BME280;503;48.120;11.488;2022-07-24T13:20:38;95599.91;;;33.07;30.50
1029;BME280;503;48.120;11.488;2022-07-24T13:23:03;95600.00;;;31.88;28.60
1029;BME280;503;48.120;11.488;2022-07-24T13:25:29;95591.59;;;32.40;28.38
1029;BME280;503;48.120;11.488;2022-07-24T13:27:54;95577.31;;;31.35;28.89
1029;BME280;503;48.120;11.488;2022-07-24T13:30:19;95597.94;;;31.59;28.32
1029;BME280;503;48.120;11.488;2022-07-24T13:32:45;95589.91;;;31.97;28.33
1029;BME280;503;48.120;11.488;2022-07-24T13:35:10;95563.78;;;32.05;28.07
1029;BME280;503;48.120;11.488;2022-07-24T13:37:35;95567.56;;;32.24;27.20
1029;BME280;503;48.120;11.488;2022-07-24T13:40:01;95556.38;;;32.60;26.94
1029;BME280;503;48.120;11.488;2022-07-24T13:42:26;95560.75;;;33.00;26.35
1029;BME280;503;48.120;11.488;2022-07-24T13:44:51;95579.00;;;32.10;27.39
1029;BME280;503;48.120;11.488;2022-07-24T13:47:17;95562.22;;;32.33;27.05
1029;BME280;503;48.120;11.488;2022-07-24T13:49:42;95571.94;;;32.80;26.60
1029;BME280;503;48.120;11.488;2022-07-24T13:52:07;95551.00;;;32.70;26.81